createdAt,value
2023-04-11T00:00:24.220Z,1.07
2023-04-11T00:02:54.825Z,1.10
2023-04-11T00:05:22.672Z,3.10
2023-04-11T00:07:50.818Z,1.10
2023-04-11T00:10:18.802Z,1.57
2023-04-11T00:12:46.608Z,1.67
2023-04-11T00:15:16.178Z,5.10
2023-04-11T00:17:45.656Z,1.37
2023-04-11T00:20:14.769Z,1.60
2023-04-11T00:22:43.797Z,2.00
2023-04-11T00:25:11.465Z,3.00
2023-04-11T00:27:40.316Z,1.93
2023-04-11T00:30:08.904Z,3.40
2023-04-11T00:32:38.738Z,2.10
2023-04-11T00:35:09.767Z,3.30
2023-04-11T00:37:56.361Z,3.23
2023-04-11T00:40:24.134Z,1.50
2023-04-11T00:42:52.905Z,3.73
2023-04-11T00:45:20.723Z,2.03
2023-04-11T00:47:48.702Z,2.33
2023-04-11T00:50:17.883Z,1.23
2023-04-11T00:52:47.154Z,3.70
2023-04-11T00:55:15.243Z,3.10
2023-04-11T00:57:44.224Z,4.60
2023-04-11T01:00:13.589Z,4.37
2023-04-11T01:02:45.102Z,3.43
2023-04-11T01:05:13.198Z,4.10
2023-04-11T01:07:45.666Z,4.23
2023-04-11T01:10:13.383Z,4.83
2023-04-11T01:12:41.287Z,5.70
2023-04-11T01:15:09.961Z,4.90
2023-04-11T01:17:38.012Z,4.33
2023-04-11T01:20:07.871Z,4.80
2023-04-11T01:22:35.815Z,6.73
2023-04-11T01:25:05.084Z,5.20
2023-04-11T01:27:34.046Z,4.70
2023-04-11T01:30:01.906Z,4.47
2023-04-11T01:32:30.146Z,8.03
2023-04-11T01:34:58.295Z,9.60
2023-04-11T01:37:26.175Z,11.00
2023-04-11T01:39:53.868Z,10.03
2023-04-11T01:42:23.673Z,4.40
2023-04-11T01:44:51.956Z,8.70
2023-04-11T01:47:19.798Z,4.70
2023-04-11T01:49:47.470Z,5.87
2023-04-11T01:52:15.563Z,13.07
2023-04-11T01:54:43.230Z,6.27
2023-04-11T01:57:10.928Z,7.00
2023-04-11T01:59:40.171Z,6.33
2023-04-11T02:02:08.066Z,9.77
2023-04-11T02:04:37.064Z,10.80
2023-04-11T02:07:04.734Z,10.80
2023-04-11T02:09:32.750Z,10.07
2023-04-11T02:12:00.989Z,7.60
2023-04-11T02:14:29.860Z,8.47
2023-04-11T02:16:59.275Z,10.67
2023-04-11T02:19:27.637Z,8.03
2023-04-11T02:21:55.416Z,11.30
2023-04-11T02:24:23.238Z,11.40
2023-04-11T02:26:50.986Z,12.60
2023-04-11T02:29:19.048Z,7.90
2023-04-11T02:31:49.349Z,9.00
2023-04-11T02:34:18.668Z,11.60
2023-04-11T02:36:46.570Z,8.60
2023-04-11T02:39:14.934Z,9.83
2023-04-11T02:41:42.810Z,9.33
2023-04-11T02:44:12.132Z,9.90
2023-04-11T02:46:40.096Z,12.37
2023-04-11T02:49:07.961Z,10.43
2023-04-11T02:51:37.165Z,11.10
2023-04-11T02:54:05.344Z,9.30
2023-04-11T02:56:34.933Z,14.07
2023-04-11T02:59:02.653Z,12.33
2023-04-11T03:01:30.665Z,9.27
2023-04-11T03:03:58.792Z,10.60
2023-04-11T03:06:27.356Z,9.87
2023-04-11T03:08:57.124Z,17.43
2023-04-11T03:11:25.489Z,13.70
2023-04-11T03:13:53.320Z,15.27
2023-04-11T03:16:21.303Z,9.07
2023-04-11T03:18:49.003Z,10.57
2023-04-11T03:21:16.908Z,12.17
2023-04-11T03:23:44.576Z,9.73
2023-04-11T03:26:14.423Z,12.53
2023-04-11T03:28:42.428Z,15.00
2023-04-11T03:31:11.660Z,9.33
2023-04-11T03:33:39.486Z,14.90
2023-04-11T03:36:08.359Z,13.40
2023-04-11T03:38:36.175Z,12.20
2023-04-11T03:41:04.178Z,9.37
2023-04-11T03:43:33.676Z,10.87
2023-04-11T03:46:01.557Z,14.07
2023-04-11T03:48:29.922Z,17.03
2023-04-11T03:50:59.686Z,15.33
2023-04-11T03:53:27.447Z,14.63
2023-04-11T03:55:55.412Z,18.27
2023-04-11T03:58:23.232Z,11.77
2023-04-11T04:00:52.283Z,14.60
2023-04-11T04:03:22.576Z,16.37
2023-04-11T04:05:50.763Z,12.50
2023-04-11T04:08:22.673Z,14.50
2023-04-11T04:10:50.577Z,12.70
2023-04-11T04:13:21.468Z,10.77
2023-04-11T04:15:49.185Z,10.17
2023-04-11T04:18:18.704Z,15.00
2023-04-11T04:20:47.399Z,12.30
2023-04-11T04:23:17.958Z,16.63
2023-04-11T04:25:48.823Z,13.60
2023-04-11T04:28:20.610Z,16.17
2023-04-11T04:30:50.128Z,16.90
2023-04-11T04:33:19.663Z,17.70
2023-04-11T04:35:47.436Z,13.93
2023-04-11T04:38:18.255Z,15.53
2023-04-11T04:40:46.329Z,14.43
2023-04-11T04:43:18.486Z,17.57
2023-04-11T04:45:46.674Z,13.27
2023-04-11T04:48:17.401Z,13.83
2023-04-11T04:50:46.589Z,16.47
2023-04-11T04:53:14.338Z,13.77
2023-04-11T06:56:48.993Z,12.67
2023-04-11T06:59:19.969Z,12.10
2023-04-11T07:01:49.289Z,9.87
2023-04-11T07:04:21.614Z,15.30
2023-04-11T07:11:52.195Z,10.43
2023-04-11T07:26:05.759Z,7.27
2023-04-11T07:48:34.308Z,5.83
2023-04-11T07:52:02.806Z,7.03
2023-04-11T08:18:48.196Z,8.90
2023-04-11T08:21:20.254Z,7.87
2023-04-11T08:23:52.264Z,7.60
2023-04-11T08:33:30.133Z,5.77
2023-04-11T08:36:05.910Z,4.07
2023-04-11T08:38:35.304Z,3.50
2023-04-11T08:41:07.276Z,5.17
2023-04-11T08:43:36.086Z,5.50
2023-04-11T09:02:19.438Z,3.95
2023-04-11T09:04:49.293Z,4.65
2023-04-11T09:07:21.445Z,4.50
2023-04-11T09:09:49.379Z,5.28
2023-04-11T09:12:17.116Z,6.85
2023-04-11T09:14:45.102Z,5.32
2023-04-11T09:17:17.208Z,3.97
2023-04-11T09:19:49.225Z,6.88
2023-04-11T09:22:18.047Z,5.93
2023-04-11T09:24:46.937Z,3.40
2023-04-11T09:27:16.931Z,4.18
2023-04-11T09:29:46.845Z,7.40
2023-04-11T09:32:30.571Z,3.83
2023-04-11T09:35:18.207Z,7.97
2023-04-11T09:37:47.063Z,5.32
2023-04-11T09:40:16.641Z,3.60
2023-04-11T09:42:44.764Z,4.97
2023-04-11T09:45:21.658Z,4.75
2023-04-11T09:47:51.616Z,5.43
2023-04-11T09:50:24.066Z,4.72
2023-04-11T09:52:53.899Z,4.32
2023-04-11T09:55:23.075Z,7.43
2023-04-11T09:57:52.498Z,3.97
2023-04-11T10:00:22.280Z,4.63
2023-04-11T10:02:53.348Z,4.05
2023-04-11T11:26:44.445Z,3.38
2023-04-11T13:47:43.384Z,3.10
2023-04-11T14:17:27.144Z,2.37
2023-04-11T14:19:54.935Z,3.00
2023-04-11T14:22:22.760Z,4.43
2023-04-11T14:24:50.576Z,2.80
2023-04-11T14:27:18.491Z,3.67
2023-04-11T14:29:47.482Z,4.07
2023-04-11T14:32:15.608Z,2.10
2023-04-11T14:34:46.143Z,1.90
2023-04-11T14:37:14.281Z,4.10
2023-04-11T14:39:42.462Z,3.83
2023-04-11T14:42:10.256Z,3.40
2023-04-11T14:44:40.553Z,5.53
2023-04-11T14:47:08.496Z,4.20
2023-04-11T14:49:39.012Z,3.53
2023-04-11T14:52:08.351Z,5.43
2023-04-11T14:54:36.276Z,5.10
2023-04-11T14:57:10.453Z,3.73
2023-04-11T14:59:38.576Z,4.03
2023-04-11T15:02:07.693Z,4.23
2023-04-11T15:04:35.781Z,5.60
2023-04-11T15:07:04.778Z,5.73
2023-04-11T15:09:34.682Z,4.77
2023-04-11T15:12:02.924Z,5.67
2023-04-11T15:14:55.985Z,5.77
2023-04-11T15:17:23.964Z,2.70
2023-04-11T15:19:52.416Z,7.43
2023-04-11T15:22:20.254Z,5.97
2023-04-11T15:24:49.559Z,5.37
2023-04-11T15:27:17.377Z,6.33
2023-04-11T15:29:45.770Z,4.13
2023-04-11T15:32:13.624Z,5.60
2023-04-11T15:34:41.617Z,5.53
2023-04-11T15:37:11.631Z,3.13
2023-04-11T15:39:39.485Z,4.43
2023-04-11T15:42:08.874Z,4.63
2023-04-11T15:44:36.665Z,3.70
2023-04-11T15:47:04.581Z,2.60
2023-04-11T15:49:32.399Z,5.37
2023-04-11T15:52:00.192Z,3.80
2023-04-11T15:54:28.340Z,4.30
2023-04-11T15:56:57.362Z,4.30
2023-04-11T15:59:26.630Z,5.03
2023-04-11T16:01:54.537Z,3.40
2023-04-11T16:04:22.521Z,3.37
2023-04-11T16:06:51.051Z,6.23
2023-04-11T16:09:20.052Z,4.47
2023-04-11T16:11:47.949Z,4.10
2023-04-11T16:14:15.775Z,4.13
2023-04-11T16:16:47.381Z,2.77
2023-04-11T16:19:15.591Z,4.87
2023-04-11T16:21:43.757Z,4.67
2023-04-11T16:24:11.740Z,3.70
2023-04-11T16:26:39.638Z,3.33
2023-04-11T16:29:07.560Z,4.33
2023-04-11T16:31:36.483Z,4.67
2023-04-11T16:34:05.951Z,6.10
2023-04-11T16:36:34.321Z,7.53
2023-04-11T16:39:04.145Z,4.47
2023-04-11T16:41:36.228Z,5.17
2023-04-11T16:44:05.861Z,5.27
2023-04-11T16:46:44.869Z,4.00
2023-04-11T16:49:16.287Z,5.27
2023-04-11T16:51:44.408Z,5.40
2023-04-11T16:54:13.696Z,2.20
2023-04-11T16:56:41.669Z,3.80
2023-04-11T16:59:10.210Z,7.17
2023-04-11T17:01:38.456Z,10.37
2023-04-11T17:04:06.803Z,4.23
2023-04-11T17:06:36.962Z,5.90
2023-04-11T17:09:06.276Z,2.00
2023-04-11T17:11:37.380Z,4.63
2023-04-11T17:14:05.620Z,6.50
2023-04-11T17:16:33.512Z,3.33
2023-04-11T17:19:01.231Z,6.93
2023-04-11T17:21:33.451Z,4.87
2023-04-11T17:24:02.828Z,4.07
2023-04-11T17:26:30.756Z,9.30
2023-04-11T17:28:59.068Z,5.07
2023-04-11T17:31:29.580Z,4.87
2023-04-11T17:33:57.805Z,4.63
2023-04-11T17:36:26.171Z,6.63
2023-04-11T17:38:54.750Z,5.37
2023-04-11T17:41:24.158Z,10.43
2023-04-11T17:43:52.083Z,5.00
2023-04-11T17:46:20.481Z,4.37
2023-04-11T17:48:48.549Z,5.87
2023-04-11T17:51:18.935Z,4.63
2023-04-11T17:53:47.260Z,7.83
2023-04-11T17:56:15.882Z,8.23
2023-04-11T17:58:46.708Z,4.77
2023-04-11T18:01:18.249Z,7.40
2023-04-11T18:03:50.364Z,4.80
2023-04-11T18:06:18.503Z,10.10
2023-04-11T18:08:51.500Z,6.30
2023-04-11T18:11:20.914Z,5.77
2023-04-11T18:13:50.693Z,6.80
2023-04-11T18:16:18.795Z,5.57
2023-04-11T18:18:47.230Z,4.83
2023-04-11T18:21:16.044Z,7.57
2023-04-11T18:23:45.417Z,5.93
2023-04-11T18:26:13.707Z,5.80
2023-04-11T18:28:41.556Z,5.80
2023-04-11T18:31:11.092Z,5.90
2023-04-11T18:33:42.966Z,24.50
2023-04-11T18:36:12.372Z,4.43
2023-04-11T18:38:40.374Z,9.03
2023-04-11T18:41:08.686Z,5.10
2023-04-11T18:43:38.456Z,7.10
2023-04-11T18:46:07.519Z,3.17
2023-04-11T18:48:40.007Z,9.40
2023-04-11T18:51:11.752Z,5.17
2023-04-11T18:53:40.904Z,3.40
2023-04-11T18:56:09.269Z,5.77
2023-04-11T18:58:45.311Z,10.43
2023-04-11T19:01:17.273Z,5.00
2023-04-11T19:03:47.858Z,4.63
2023-04-11T19:06:16.904Z,4.60
2023-04-11T19:08:45.130Z,6.17
2023-04-11T19:11:13.213Z,6.87
2023-04-11T19:13:41.285Z,8.90
2023-04-11T19:16:09.320Z,4.53
2023-04-11T19:18:37.487Z,6.70
2023-04-11T19:21:07.895Z,4.67
2023-04-11T19:23:35.966Z,5.40
2023-04-11T19:26:04.151Z,3.57
2023-04-11T19:28:32.422Z,7.60
2023-04-11T19:31:00.579Z,4.40
2023-04-11T19:33:28.558Z,6.23
2023-04-11T19:35:57.574Z,5.37
2023-04-11T19:38:27.069Z,3.40
2023-04-11T19:40:55.799Z,6.50
2023-04-11T19:43:23.819Z,6.07
2023-04-11T19:45:52.122Z,5.67
2023-04-11T19:48:22.874Z,8.63
2023-04-11T19:50:50.980Z,5.33
2023-04-11T19:53:18.764Z,5.87
2023-04-11T19:55:53.453Z,5.67
2023-04-11T19:58:22.281Z,7.07
2023-04-11T20:00:51.150Z,4.23
2023-04-11T20:03:19.191Z,3.33
2023-04-11T20:05:47.660Z,3.97
2023-04-11T20:08:15.670Z,5.37
2023-04-11T20:10:43.521Z,7.20
2023-04-11T20:13:12.796Z,7.70
2023-04-11T20:15:40.895Z,6.47
2023-04-11T20:18:10.849Z,5.83
2023-04-11T20:20:38.713Z,9.33
2023-04-11T20:23:07.163Z,5.67
2023-04-11T20:25:36.047Z,5.50
2023-04-11T20:28:03.903Z,3.53
2023-04-11T20:30:33.289Z,4.07
2023-04-11T20:33:01.729Z,5.90
2023-04-11T20:35:29.861Z,6.73
2023-04-11T20:37:57.747Z,7.97
2023-04-11T20:40:25.851Z,8.37
2023-04-11T20:42:56.393Z,5.67
2023-04-11T20:45:27.802Z,5.63
2023-04-11T20:47:59.774Z,3.73
2023-04-11T20:50:33.452Z,3.10
2023-04-11T20:53:01.875Z,3.23
2023-04-11T20:55:30.524Z,4.07
2023-04-11T20:57:58.553Z,5.03
2023-04-11T21:00:26.701Z,3.77
2023-04-11T21:02:59.232Z,4.07
2023-04-11T21:05:27.520Z,3.93
2023-04-11T21:07:55.419Z,3.43
2023-04-11T21:10:23.445Z,6.10
2023-04-11T21:12:53.774Z,5.93
2023-04-11T21:15:22.051Z,3.63
2023-04-11T21:17:50.491Z,3.13
2023-04-11T21:20:20.792Z,3.97
2023-04-11T21:22:49.060Z,3.37
2023-04-11T21:25:17.185Z,3.37
2023-04-11T21:27:45.016Z,5.90
2023-04-11T21:30:13.471Z,7.47
2023-04-11T21:32:41.455Z,4.00
2023-04-11T21:35:10.483Z,8.60
2023-04-11T21:37:39.746Z,6.03
2023-04-11T21:40:08.772Z,4.07
2023-04-11T21:42:36.718Z,6.80
2023-04-11T21:45:04.979Z,4.73
2023-04-11T21:47:33.015Z,6.13
2023-04-11T21:50:00.959Z,5.43
2023-04-11T21:52:28.817Z,5.40
2023-04-11T21:54:58.082Z,3.83
2023-04-11T21:57:26.068Z,2.83
2023-04-11T21:59:54.009Z,2.33
2023-04-11T22:02:22.228Z,5.60
2023-04-11T22:05:04.857Z,5.53
2023-04-11T22:07:39.074Z,3.87
2023-04-11T22:10:12.276Z,4.57
2023-04-11T22:12:40.177Z,3.67
2023-04-11T22:15:11.089Z,3.23
2023-04-11T22:17:41.941Z,3.00
2023-04-11T22:20:11.209Z,5.50
2023-04-11T22:22:39.590Z,4.57
2023-04-11T22:25:10.412Z,3.50
2023-04-11T22:27:38.514Z,3.73
2023-04-11T22:30:08.810Z,4.93
2023-04-11T22:32:37.015Z,5.20
2023-04-11T22:35:05.864Z,5.10
2023-04-11T22:37:34.289Z,7.33
2023-04-11T22:40:02.396Z,4.23
2023-04-11T22:42:31.718Z,5.00
2023-04-11T22:44:59.699Z,2.87
2023-04-11T22:47:29.020Z,3.27
2023-04-11T22:49:57.852Z,3.23
2023-04-11T22:52:26.518Z,3.97
2023-04-11T22:54:56.382Z,2.03
2023-04-11T22:57:24.289Z,3.83
2023-04-11T22:59:53.649Z,5.73
2023-04-11T23:02:23.298Z,2.60
2023-04-11T23:04:51.384Z,7.27
2023-04-11T23:07:19.496Z,5.17
2023-04-11T23:09:47.366Z,6.37
2023-04-11T23:12:15.675Z,2.10
2023-04-11T23:14:43.523Z,2.63
2023-04-11T23:17:13.501Z,7.60
2023-04-11T23:19:41.426Z,4.63
2023-04-11T23:22:09.878Z,2.50
2023-04-11T23:24:37.843Z,6.67
2023-04-11T23:27:06.648Z,5.50
2023-04-11T23:29:34.557Z,4.90
2023-04-11T23:32:02.460Z,4.37
2023-04-11T23:34:31.972Z,3.20
2023-04-11T23:36:59.878Z,6.53
2023-04-11T23:39:27.741Z,5.47
2023-04-11T23:41:55.548Z,5.20
2023-04-11T23:44:23.413Z,3.23
2023-04-11T23:46:51.416Z,5.57
2023-04-11T23:49:19.462Z,7.83
2023-04-11T23:51:48.733Z,4.53
2023-04-11T23:54:16.645Z,2.70
2023-04-11T23:56:44.998Z,6.00
2023-04-11T23:59:12.932Z,4.43
